Wales, WI

8:22 PM CDT on October 25, 2014 (GMT -0500)
Watertown Municipal | Change Station
CLOSE
Current Station
Airport
Location: Watertown,
Elevation: 833 ft
Nearby Weather Stations

Elev 833 ft 43.17 °N, 88.72 °W | Updated 27 minutes ago

Clear
Clear
53 °F
Feels Like 53 °F
N
7
Wind Variable Wind from West

Today
High -- | Low -- °F
--% Chance of Precip.
Yesterday
High -- | Low -- °F
Precip. -- in
7:19 AM 5:55 PM
Waxing Crescent, 5% visible
Pressure 29.95 in
Visibility 10.0 miles
Clouds Clear
Dew Point 31 °F
Humidity 43%
Rainfall 0.00 in
Snow Depth Not available.
UV 0 out of 12
Pollen 2.30 out of 12
Air Quality Not available.
Flu Activity Sporadic
METAR KRYV 260055Z AUTO 27006KT 10SM CLR 12/00 A2995 RMK AO2 T01171005

More Conditions Fewer Conditions

Pressure 29.95 in
Visibility 10.0 miles
Clouds Clear
Dew Point 31 °F
Humidity 43%
Rainfall 0.00 in
Snow Depth Not available.
UV 0 out of 12
Pollen 2.30 out of 12
Air Quality Not available.
Flu Activity Sporadic
METAR KRYV 260055Z AUTO 27006KT 10SM CLR 12/00 A2995 RMK AO2 T01171005

More Conditions Fewer Conditions

10-Day Weather Forecast

Almanac

Astronomy

Oct. 25, 2014 Rise Set
Actual Time 7:19 AM CDT 5:55 PM CDT
Civil Twilight 6:50 AM CDT 6:24 PM CDT
Nautical Twilight 6:16 AM CDT 6:57 PM CDT
Astronomical Twilight 5:44 AM CDT 7:30 PM CDT
Moon 8:59 AM CDT (10/25) 7:15 PM CDT (10/25)
Length of Visible Light 11h 34m
Length of Day
10h 36m
Tomorrow will be 2m 43s shorter.
Waxing Crescent, 5% of the Moon is Illuminated
Today
Waxing Crescent
Oct 30
First Quarter
Nov 6
Full
Nov 14
Last Quarter
Nov 22
New

Today's Extremes

State Highs State Lows

Community

WunderPhotos

Upload Photos

1,765,065 photos uploaded!

Nearby

Snow Depth

Station Depth Elevation
No new snow has been reported.

Earthquake Activity

City Distance Mag. Time & Date
No recent earthquake activity has been reported nearby.
Minimum magnitude displayed is 2.5.

Coastal Water Temperatures

Place Temperature
No Stations Reporting

Nearby Weather Stations